createdAt,value
2022-11-05T00:01:51.080Z,117.10
2022-11-05T00:04:39.135Z,111.37
2022-11-05T00:07:29.262Z,108.80
2022-11-05T00:10:01.219Z,103.07
2022-11-05T00:12:46.783Z,106.43
2022-11-05T00:15:32.427Z,108.00
2022-11-05T00:18:00.480Z,108.07
2022-11-05T00:20:29.847Z,109.43
2022-11-05T00:23:22.598Z,110.17
2022-11-05T00:25:58.090Z,107.03
2022-11-05T00:28:26.136Z,106.13
2022-11-05T00:30:54.392Z,109.13
2022-11-05T00:33:22.446Z,108.53
2022-11-05T00:35:51.855Z,108.73
2022-11-05T00:38:19.965Z,107.50
2022-11-05T00:40:48.018Z,106.17
2022-11-05T00:43:33.859Z,108.83
2022-11-05T00:46:01.942Z,107.07
2022-11-05T00:48:47.749Z,105.13
2022-11-05T00:51:17.489Z,106.30
2022-11-05T00:53:45.575Z,108.73
2022-11-05T00:56:13.844Z,108.87
2022-11-05T00:58:41.878Z,107.87
2022-11-05T01:01:11.627Z,107.23
2022-11-05T01:03:41.062Z,108.70
2022-11-05T01:06:12.758Z,109.07
2022-11-05T01:08:43.468Z,107.57
2022-11-05T01:11:33.039Z,108.43
2022-11-05T01:14:02.005Z,111.63
2022-11-05T01:16:30.493Z,110.47
2022-11-05T01:18:58.548Z,113.20
2022-11-05T01:21:26.556Z,115.00
2022-11-05T01:23:56.011Z,113.93
2022-11-05T01:26:25.143Z,112.50
2022-11-05T01:28:53.633Z,113.67
2022-11-05T01:31:22.195Z,115.10
2022-11-05T01:33:50.520Z,113.00
2022-11-05T01:36:19.227Z,114.13
2022-11-05T01:38:47.267Z,114.37
2022-11-05T01:41:16.709Z,112.13
2022-11-05T01:43:49.779Z,115.30
2022-11-05T01:46:20.942Z,114.73
2022-11-05T01:48:55.191Z,111.77
2022-11-05T01:51:28.333Z,114.47
2022-11-05T01:54:01.635Z,118.07
2022-11-05T01:56:36.070Z,114.63
2022-11-05T01:59:07.683Z,114.10
2022-11-05T02:01:36.087Z,114.50
2022-11-05T02:04:06.442Z,114.90
2022-11-05T02:06:38.056Z,115.53
2022-11-05T02:09:11.538Z,117.53
2022-11-05T02:11:40.907Z,117.40
2022-11-05T02:14:08.957Z,116.40
2022-11-05T02:16:42.355Z,119.13
2022-11-05T02:19:44.820Z,118.27
2022-11-05T02:22:34.344Z,116.40
2022-11-05T02:25:20.373Z,119.30
2022-11-05T02:28:17.044Z,118.30
2022-11-05T02:30:54.003Z,120.27
2022-11-05T02:33:32.214Z,121.37
2022-11-05T02:36:21.570Z,120.33
2022-11-05T02:38:59.523Z,118.17
2022-11-05T02:41:35.037Z,117.50
2022-11-05T02:44:22.302Z,120.20
2022-11-05T02:46:58.215Z,118.80
2022-11-05T02:49:40.177Z,114.43
2022-11-05T02:52:30.358Z,116.93
2022-11-05T02:55:00.663Z,115.50
2022-11-05T02:57:30.805Z,118.93
2022-11-05T03:00:02.550Z,117.43
2022-11-05T03:02:32.362Z,116.93
2022-11-05T03:05:01.228Z,114.60
2022-11-05T03:07:41.771Z,114.20
2022-11-05T03:10:28.466Z,115.80
2022-11-05T03:13:07.203Z,115.43
2022-11-05T03:15:49.633Z,116.40
2022-11-05T03:18:26.205Z,116.20
2022-11-05T03:21:01.937Z,117.23
2022-11-05T03:23:37.179Z,118.20
2022-11-05T03:26:09.124Z,117.10
2022-11-05T03:28:40.870Z,115.10
2022-11-05T03:31:12.479Z,117.77
2022-11-05T03:33:44.303Z,121.00
2022-11-05T03:36:18.410Z,118.83
2022-11-05T03:38:50.424Z,115.83
2022-11-05T03:41:21.032Z,113.93
2022-11-05T03:43:52.590Z,117.13
2022-11-05T03:46:28.206Z,116.90
2022-11-05T03:49:00.283Z,117.00
2022-11-05T03:51:37.790Z,119.97
2022-11-05T03:54:06.672Z,121.50
2022-11-05T03:56:40.125Z,121.50
2022-11-05T03:59:10.003Z,120.83
2022-11-05T04:01:38.726Z,119.27
2022-11-05T04:04:09.814Z,121.20
2022-11-05T04:06:55.223Z,117.40
2022-11-05T04:09:40.891Z,117.20
2022-11-05T04:12:28.216Z,117.50
2022-11-05T04:14:57.373Z,120.50
2022-11-05T04:17:24.593Z,117.87
2022-11-05T04:20:11.517Z,117.17
2022-11-05T04:22:56.884Z,116.50
2022-11-05T04:25:24.909Z,114.00
2022-11-05T04:27:53.238Z,116.27
2022-11-05T04:30:21.512Z,116.27
2022-11-05T04:33:04.580Z,117.30
2022-11-05T04:35:36.211Z,120.07
2022-11-05T04:38:05.674Z,116.63
2022-11-05T04:40:34.128Z,115.40
2022-11-05T04:43:02.611Z,118.33
2022-11-05T04:45:33.053Z,118.13
2022-11-05T04:48:01.169Z,116.97
2022-11-05T04:50:29.517Z,116.20
2022-11-05T04:52:59.126Z,119.67
2022-11-05T04:55:27.497Z,121.90
2022-11-05T04:57:56.037Z,122.83
2022-11-05T05:00:25.172Z,117.17
2022-11-05T05:02:53.288Z,119.00
2022-11-05T05:05:22.569Z,117.20
2022-11-05T05:07:50.639Z,112.83
2022-11-05T05:10:20.258Z,117.03
2022-11-05T05:12:48.540Z,116.50
2022-11-05T05:15:16.650Z,113.43
2022-11-05T05:17:44.753Z,115.90
2022-11-05T05:20:30.101Z,117.63
2022-11-05T05:22:58.198Z,113.73
2022-11-05T05:25:27.653Z,115.00
2022-11-05T05:27:57.941Z,111.70
2022-11-05T05:30:26.273Z,115.77
2022-11-05T05:32:54.373Z,111.67
2022-11-05T05:35:22.454Z,106.97
2022-11-05T05:37:50.493Z,109.13
2022-11-05T05:40:18.783Z,107.13
2022-11-05T05:42:48.804Z,109.97
2022-11-05T05:45:17.058Z,107.67
2022-11-05T05:47:45.151Z,106.23
2022-11-05T05:50:13.275Z,105.73
2022-11-05T05:52:41.603Z,107.70
2022-11-05T05:55:12.614Z,105.00
2022-11-05T05:57:40.940Z,104.33
2022-11-05T06:00:12.079Z,104.13
2022-11-05T06:02:40.772Z,102.17
2022-11-05T06:05:09.425Z,101.40
2022-11-05T06:07:37.836Z,100.90
2022-11-05T06:10:07.044Z,103.77
2022-11-05T06:12:35.105Z,105.17
2022-11-05T06:15:04.195Z,104.10
2022-11-05T06:17:34.273Z,101.03
2022-11-05T06:20:02.320Z,100.73
2022-11-05T06:22:30.586Z,103.03
2022-11-05T06:24:58.693Z,101.47
2022-11-05T06:27:26.815Z,114.07
2022-11-05T06:29:55.491Z,112.50
2022-11-05T06:32:23.587Z,111.23
2022-11-05T06:34:52.956Z,110.77
2022-11-05T06:37:21.035Z,109.67
2022-11-05T06:39:49.113Z,113.77
2022-11-05T06:42:18.992Z,113.43
2022-11-05T06:44:47.700Z,116.45
2022-11-05T06:47:15.901Z,111.43
2022-11-05T06:49:44.265Z,112.63
2022-11-05T06:52:15.404Z,112.10
2022-11-05T06:54:44.467Z,118.50
2022-11-05T06:57:13.612Z,114.13
2022-11-05T06:59:42.038Z,109.10
2022-11-05T07:02:13.946Z,112.20
2022-11-05T07:04:42.135Z,114.40
2022-11-05T07:07:10.495Z,114.83
2022-11-05T07:09:43.063Z,112.90
2022-11-05T07:12:11.347Z,113.73
2022-11-05T07:14:39.433Z,107.93
2022-11-05T07:17:07.526Z,107.47
2022-11-05T07:19:35.546Z,106.90
2022-11-05T07:22:03.632Z,113.57
2022-11-05T07:24:31.719Z,110.17
2022-11-05T07:27:01.201Z,107.13
2022-11-05T07:29:29.299Z,110.07
2022-11-05T07:31:57.370Z,108.67
2022-11-05T07:34:25.485Z,108.80
2022-11-05T07:36:53.508Z,108.80
2022-11-05T07:39:21.902Z,109.73
2022-11-05T07:41:49.984Z,112.73
2022-11-05T07:44:19.405Z,113.83
2022-11-05T07:46:47.394Z,116.17
2022-11-05T07:49:15.413Z,115.60
2022-11-05T07:51:43.611Z,118.70
2022-11-05T07:54:11.734Z,118.33
2022-11-05T07:56:39.824Z,116.13
2022-11-05T07:59:08.002Z,118.30
2022-11-05T08:01:37.646Z,119.43
2022-11-05T08:04:06.031Z,120.33
2022-11-05T08:06:34.058Z,120.33
2022-11-05T08:09:02.233Z,122.03
2022-11-05T08:11:30.319Z,122.53
2022-11-05T08:13:58.405Z,123.37
2022-11-05T08:16:26.466Z,125.63
2022-11-05T08:18:55.881Z,123.83
2022-11-05T08:21:23.928Z,121.47
2022-11-05T08:23:52.011Z,120.87
2022-11-05T08:26:20.650Z,119.23
2022-11-05T08:28:48.651Z,118.47
2022-11-05T08:31:18.135Z,119.17
2022-11-05T08:33:46.434Z,119.13
2022-11-05T08:36:15.940Z,115.73
2022-11-05T08:38:44.100Z,116.27
2022-11-05T08:41:12.221Z,117.70
2022-11-05T08:43:40.255Z,117.53
2022-11-05T08:46:08.539Z,115.03
2022-11-05T08:48:36.603Z,111.63
2022-11-05T08:51:04.794Z,111.83
2022-11-05T08:53:34.193Z,115.67
2022-11-05T08:56:02.381Z,115.13
2022-11-05T08:58:30.895Z,109.87
2022-11-05T09:01:04.443Z,107.83
2022-11-05T09:03:33.148Z,104.00
2022-11-05T09:06:01.375Z,101.93
2022-11-05T09:08:29.305Z,105.83
2022-11-05T09:10:58.787Z,101.13
2022-11-05T09:13:27.383Z,100.93
2022-11-05T09:15:55.688Z,100.70
2022-11-05T09:18:23.790Z,97.57
2022-11-05T09:20:51.951Z,99.27
2022-11-05T09:23:20.229Z,98.10
2022-11-05T09:25:48.561Z,99.37
2022-11-05T09:28:20.213Z,99.93
2022-11-05T09:30:50.053Z,97.40
2022-11-05T09:33:20.593Z,94.97
2022-11-05T09:35:49.145Z,96.67
2022-11-05T09:38:17.703Z,96.50
2022-11-05T09:40:55.369Z,91.47
2022-11-05T09:43:31.768Z,88.03
2022-11-05T09:46:08.554Z,88.33
2022-11-05T09:48:38.200Z,90.73
2022-11-05T09:51:07.227Z,97.93
2022-11-05T09:53:40.060Z,88.33
2022-11-05T09:56:19.825Z,88.70
2022-11-05T09:58:54.209Z,86.50
2022-11-05T10:01:26.172Z,81.77
2022-11-05T10:03:57.888Z,77.73
2022-11-05T10:06:29.691Z,77.63
2022-11-05T10:09:03.933Z,78.13
2022-11-05T10:11:38.359Z,68.23
2022-11-05T10:14:17.011Z,56.37
2022-11-05T10:16:49.968Z,54.00
2022-11-05T10:19:24.800Z,46.20
2022-11-05T10:22:12.236Z,40.67
2022-11-05T10:24:43.829Z,34.40
2022-11-05T10:27:18.458Z,31.67
2022-11-05T10:29:49.554Z,34.97
2022-11-05T10:32:26.934Z,33.33
2022-11-05T10:34:58.714Z,34.17
2022-11-05T10:37:28.199Z,30.90
2022-11-05T10:39:56.933Z,28.50
2022-11-05T10:42:49.349Z,29.50
2022-11-05T10:45:29.440Z,28.63
2022-11-05T10:48:10.570Z,27.60
2022-11-05T10:50:39.838Z,27.87
2022-11-05T10:53:15.556Z,27.70
2022-11-05T10:55:46.227Z,27.10
2022-11-05T10:58:22.206Z,28.20
2022-11-05T11:01:05.941Z,28.00
2022-11-05T11:03:42.690Z,25.57
2022-11-05T11:06:21.668Z,24.80
2022-11-05T11:08:51.131Z,25.03
2022-11-05T11:11:32.743Z,25.37
2022-11-05T11:14:03.851Z,25.17
2022-11-05T11:16:38.197Z,24.90
2022-11-05T11:19:25.367Z,24.50
2022-11-05T11:22:15.131Z,23.90
2022-11-05T11:24:45.555Z,25.33
2022-11-05T11:27:16.650Z,25.37
2022-11-05T11:29:49.825Z,25.53
2022-11-05T11:32:21.522Z,26.00
2022-11-05T11:34:54.477Z,26.13
2022-11-05T11:37:28.902Z,25.80
2022-11-05T11:40:00.249Z,25.20
2022-11-05T11:42:32.385Z,24.33
2022-11-05T11:45:05.940Z,22.97
2022-11-05T11:47:36.408Z,22.40
2022-11-05T11:50:05.037Z,22.83
2022-11-05T11:52:35.548Z,23.07
2022-11-05T11:55:22.147Z,21.70
2022-11-05T11:57:52.325Z,21.63
2022-11-05T12:00:24.347Z,21.90
2022-11-05T12:03:13.974Z,20.67
2022-11-05T12:05:47.948Z,22.27
2022-11-05T12:08:40.509Z,21.30
2022-11-05T12:11:17.366Z,21.03
2022-11-05T12:14:04.887Z,20.70
2022-11-05T12:17:02.251Z,21.00
2022-11-05T12:19:50.811Z,20.10
2022-11-05T12:22:30.652Z,20.37
2022-11-05T12:25:26.036Z,20.20
2022-11-05T12:28:13.818Z,20.37
2022-11-05T12:30:52.467Z,19.07
2022-11-05T12:33:42.373Z,19.30
2022-11-05T12:36:30.552Z,19.40
2022-11-05T12:39:19.731Z,18.73
2022-11-05T12:41:56.511Z,18.70
2022-11-05T12:44:48.595Z,19.00
2022-11-05T12:47:29.279Z,18.93
2022-11-05T12:50:11.290Z,19.40
2022-11-05T12:53:12.943Z,20.17
2022-11-05T12:55:48.718Z,20.67
2022-11-05T12:58:36.196Z,21.70
2022-11-05T13:01:12.922Z,19.30
2022-11-05T13:03:45.027Z,19.80
2022-11-05T13:06:16.210Z,19.77
2022-11-05T13:08:50.795Z,19.63
2022-11-05T13:11:25.081Z,20.20
2022-11-05T13:14:02.778Z,21.27
2022-11-05T13:16:36.037Z,19.70
2022-11-05T13:19:08.525Z,20.93
2022-11-05T13:21:38.281Z,20.13
2022-11-05T13:24:12.325Z,19.50
2022-11-05T13:26:48.250Z,19.13
2022-11-05T13:29:22.294Z,19.70
2022-11-05T13:31:55.550Z,19.33
2022-11-05T13:34:24.414Z,19.30
2022-11-05T13:37:14.635Z,19.10
2022-11-05T13:39:50.386Z,19.00
2022-11-05T13:43:06.847Z,18.97
2022-11-05T13:46:16.458Z,19.43
2022-11-05T13:49:08.769Z,19.90
2022-11-05T13:51:50.091Z,19.50
2022-11-05T13:55:00.387Z,19.93
2022-11-05T13:58:12.027Z,20.20
2022-11-05T14:00:46.064Z,19.80
2022-11-05T14:03:20.315Z,19.50
2022-11-05T14:05:57.093Z,20.00
2022-11-05T14:08:29.685Z,19.50
2022-11-05T14:11:02.177Z,19.77
2022-11-05T14:13:36.277Z,20.40
2022-11-05T14:16:09.012Z,19.30
2022-11-05T14:18:45.677Z,19.20
2022-11-05T14:21:50.028Z,22.67
2022-11-05T14:24:43.338Z,19.07
2022-11-05T14:27:45.265Z,20.40
2022-11-05T14:30:45.522Z,19.17
2022-11-05T14:33:33.204Z,19.17
2022-11-05T14:36:34.462Z,18.80
2022-11-05T14:39:19.956Z,18.87
2022-11-05T14:42:00.565Z,18.77
2022-11-05T14:44:30.018Z,19.17
2022-11-05T14:47:01.374Z,21.33
2022-11-05T14:49:32.614Z,19.80
2022-11-05T14:52:06.909Z,20.20
2022-11-05T14:54:42.595Z,20.10
2022-11-05T14:57:14.477Z,19.97
2022-11-05T14:59:56.796Z,20.17
2022-11-05T15:02:27.900Z,19.80
2022-11-05T15:05:25.719Z,21.03
2022-11-05T15:07:58.086Z,20.30
2022-11-05T15:10:32.900Z,22.00
2022-11-05T15:13:05.290Z,19.90
2022-11-05T15:15:42.048Z,20.60
2022-11-05T15:18:18.650Z,20.23
2022-11-05T15:20:50.275Z,19.70
2022-11-05T15:23:21.734Z,20.30
2022-11-05T15:26:07.374Z,19.97
2022-11-05T15:28:38.831Z,20.90
2022-11-05T15:31:21.854Z,20.37
2022-11-05T15:33:50.044Z,20.43
2022-11-05T15:36:24.406Z,21.10
2022-11-05T15:39:22.975Z,20.20
2022-11-05T15:41:42.724Z,20.80
2022-11-05T15:44:25.390Z,19.57
2022-11-05T15:47:07.722Z,20.77
2022-11-05T15:49:36.069Z,20.47
2022-11-05T15:52:04.842Z,20.90
2022-11-05T15:54:33.388Z,21.10
2022-11-05T15:57:03.576Z,21.33
2022-11-05T15:59:32.007Z,20.90
2022-11-05T16:02:06.947Z,30.80
2022-11-05T16:04:36.308Z,22.63
2022-11-05T16:07:10.867Z,20.53
2022-11-05T16:09:41.351Z,21.30
2022-11-05T16:12:28.121Z,21.50
2022-11-05T16:15:01.892Z,21.90
2022-11-05T16:17:33.635Z,21.30
2022-11-05T16:20:02.027Z,20.63
2022-11-05T16:22:45.907Z,21.30
2022-11-05T16:25:39.523Z,22.53
2022-11-05T16:28:22.473Z,21.80
2022-11-05T16:30:55.919Z,22.17
2022-11-05T16:33:24.699Z,21.07
2022-11-05T16:35:52.838Z,21.37
2022-11-05T16:38:21.959Z,21.67
2022-11-05T16:40:50.112Z,22.40
2022-11-05T16:43:22.463Z,22.00
2022-11-05T16:45:50.897Z,22.73
2022-11-05T16:48:18.911Z,22.23
2022-11-05T16:50:47.614Z,22.00
2022-11-05T16:53:15.753Z,21.87
2022-11-05T16:55:45.906Z,22.87
2022-11-05T16:58:21.918Z,22.93
2022-11-05T17:00:51.393Z,23.90
2022-11-05T17:03:19.522Z,23.27
2022-11-05T17:05:48.282Z,24.00
2022-11-05T17:08:16.219Z,23.70
2022-11-05T17:10:44.389Z,24.33
2022-11-05T17:13:15.399Z,22.50
2022-11-05T17:15:46.013Z,23.60
2022-11-05T17:18:18.650Z,22.97
2022-11-05T17:20:49.070Z,23.17
2022-11-05T17:23:18.970Z,22.93
2022-11-05T17:25:48.901Z,23.90
2022-11-05T17:28:17.903Z,22.13
2022-11-05T17:30:52.325Z,22.40
2022-11-05T17:33:21.607Z,23.37
2022-11-05T17:35:49.856Z,23.63
2022-11-05T17:38:18.080Z,27.17
2022-11-05T17:40:46.243Z,23.50
2022-11-05T17:43:15.561Z,23.33
2022-11-05T17:45:46.451Z,23.20
2022-11-05T17:48:16.877Z,23.20
2022-11-05T17:50:46.436Z,23.60
2022-11-05T17:53:15.539Z,23.20
2022-11-05T17:55:45.442Z,24.40
2022-11-05T17:58:14.774Z,23.47
2022-11-05T18:00:44.846Z,24.33
2022-11-05T18:03:15.971Z,25.10
2022-11-05T18:05:45.134Z,23.50
2022-11-05T18:08:13.785Z,23.37
2022-11-05T18:10:42.473Z,23.70
2022-11-05T18:13:11.372Z,24.60
2022-11-05T18:15:42.066Z,23.43
2022-11-05T18:18:10.403Z,22.40
2022-11-05T18:20:40.313Z,23.27
2022-11-05T18:23:08.595Z,22.50
2022-11-05T18:25:37.019Z,22.93
2022-11-05T18:28:05.279Z,22.63
2022-11-05T18:30:33.869Z,23.03
2022-11-05T18:33:02.207Z,22.17
2022-11-05T18:35:30.335Z,23.23
2022-11-05T18:37:59.819Z,23.50
2022-11-05T18:40:28.538Z,23.17
2022-11-05T18:42:57.052Z,23.00
2022-11-05T18:45:29.518Z,23.10
2022-11-05T18:47:58.199Z,24.20
2022-11-05T18:50:26.401Z,23.17
2022-11-05T18:52:54.662Z,23.00
2022-11-05T18:55:24.460Z,23.37
2022-11-05T18:57:52.652Z,23.13
2022-11-05T19:00:21.375Z,23.30
2022-11-05T19:02:50.316Z,23.23
2022-11-05T19:05:34.481Z,25.27
2022-11-05T19:08:02.600Z,24.77
2022-11-05T19:10:32.295Z,23.87
2022-11-05T19:13:00.534Z,22.80
2022-11-05T19:15:28.873Z,23.70
2022-11-05T19:17:57.183Z,23.40
2022-11-05T19:20:25.687Z,22.40
2022-11-05T19:22:53.896Z,22.70
2022-11-05T19:25:22.166Z,22.03
2022-11-05T19:27:51.897Z,22.90
2022-11-05T19:30:20.350Z,23.90
2022-11-05T19:32:48.799Z,24.00
2022-11-05T19:35:17.426Z,23.40
2022-11-05T19:37:45.714Z,25.17
2022-11-05T19:40:14.273Z,24.00
2022-11-05T19:42:42.698Z,24.20
2022-11-05T19:48:01.615Z,24.30
2022-11-05T19:50:29.866Z,26.50
2022-11-05T19:52:58.261Z,24.47
2022-11-05T19:55:26.923Z,24.23
2022-11-05T19:57:55.128Z,23.90
2022-11-05T20:00:24.961Z,24.43
2022-11-05T20:02:53.571Z,24.80
2022-11-05T20:05:22.045Z,25.70
2022-11-05T20:07:53.077Z,25.00
2022-11-05T20:10:21.598Z,25.50
2022-11-05T20:12:49.948Z,24.77
2022-11-05T20:15:19.710Z,24.90
2022-11-05T20:17:53.494Z,26.47
2022-11-05T20:20:21.946Z,26.10
2022-11-05T20:22:52.214Z,24.83
2022-11-05T20:25:20.790Z,24.60
2022-11-05T20:27:49.285Z,27.10
2022-11-05T20:30:18.697Z,26.07
2022-11-05T20:32:46.999Z,25.87
2022-11-05T20:35:17.042Z,25.07
2022-11-05T20:37:48.424Z,27.40
2022-11-05T20:40:19.368Z,26.67
2022-11-05T20:42:47.456Z,27.30
2022-11-05T20:45:15.461Z,26.37
2022-11-05T20:47:43.636Z,26.80
2022-11-05T20:50:11.715Z,43.97
2022-11-05T20:52:41.458Z,26.57
2022-11-05T20:55:10.782Z,26.03
2022-11-05T20:57:39.610Z,26.00
2022-11-05T21:00:09.148Z,27.30
2022-11-05T21:02:39.506Z,28.00
2022-11-05T21:05:08.654Z,27.27
2022-11-05T21:07:36.768Z,29.20
2022-11-05T21:10:07.490Z,29.20
2022-11-05T21:12:35.554Z,28.97
2022-11-05T21:15:03.653Z,28.73
2022-11-05T21:17:31.651Z,28.53
2022-11-05T21:19:59.780Z,29.20
2022-11-05T21:22:27.914Z,29.37
2022-11-05T21:24:56.752Z,28.20
2022-11-05T21:27:26.220Z,28.57
2022-11-05T21:29:54.325Z,28.43
2022-11-05T21:32:22.370Z,30.17
2022-11-05T21:34:50.460Z,30.30
2022-11-05T21:37:18.531Z,30.30
2022-11-05T21:39:46.621Z,31.13
2022-11-05T21:42:14.656Z,29.37
2022-11-05T21:44:44.136Z,31.17
2022-11-05T21:47:12.738Z,31.93
2022-11-05T21:49:40.824Z,32.00
2022-11-05T21:52:28.605Z,32.30
2022-11-05T21:55:14.238Z,31.93
2022-11-05T21:58:00.367Z,30.93
2022-11-05T22:00:30.280Z,31.70
2022-11-05T22:02:59.958Z,31.63
2022-11-05T22:05:29.334Z,31.57
2022-11-05T22:07:57.419Z,31.17
2022-11-05T22:10:25.701Z,33.00
2022-11-05T22:12:53.796Z,31.83
2022-11-05T22:15:21.852Z,33.37
2022-11-05T22:17:52.348Z,31.43
2022-11-05T22:20:20.580Z,32.97
2022-11-05T22:22:48.637Z,33.10
2022-11-05T22:25:16.767Z,33.33
2022-11-05T22:27:44.983Z,32.13
2022-11-05T22:30:14.507Z,32.60
2022-11-05T22:32:42.634Z,32.40
2022-11-05T22:35:12.271Z,32.20
2022-11-05T22:37:40.354Z,33.03
2022-11-05T22:40:09.656Z,31.73
2022-11-05T22:42:37.963Z,32.97
2022-11-05T22:45:07.226Z,33.77
2022-11-05T22:47:35.590Z,35.40
2022-11-05T22:50:04.025Z,33.77
2022-11-05T22:52:33.698Z,34.07
2022-11-05T22:55:02.685Z,34.33
2022-11-05T22:57:30.769Z,35.00
2022-11-05T22:59:58.819Z,35.20
2022-11-05T23:02:26.982Z,35.57
2022-11-05T23:04:55.205Z,35.47
2022-11-05T23:07:40.723Z,35.37
2022-11-05T23:10:28.176Z,35.57
2022-11-05T23:12:56.562Z,36.47
2022-11-05T23:15:41.913Z,36.73
2022-11-05T23:18:28.357Z,35.70
2022-11-05T23:21:14.720Z,35.90
2022-11-05T23:24:01.812Z,35.77
2022-11-05T23:26:51.128Z,34.47
2022-11-05T23:29:20.244Z,33.83
2022-11-05T23:32:05.722Z,34.77
2022-11-05T23:34:33.753Z,35.17
2022-11-05T23:37:19.482Z,36.47
2022-11-05T23:39:47.549Z,36.33
2022-11-05T23:42:34.411Z,38.10
2022-11-05T23:45:19.905Z,37.77
2022-11-05T23:48:05.550Z,39.47
2022-11-05T23:50:38.546Z,39.97
2022-11-05T23:53:08.631Z,41.23
2022-11-05T23:55:37.038Z,40.60
2022-11-05T23:58:06.464Z,42.33
